Ararat Grigoryan

Chefscout - Gandzasar
23 Okt 2027
Samstag
Verarbeitung

Persönlichkeit

Anpassungsfähigkeit (20) Ehrgeiz (1) Kontroverse (17) Loyalität (14) Druck (14) Professionalität (13) Fairness (8) Temperament (9)

Profil

Trainerstil Demokratisch
Lizenz Kontinentale B
Entschlossenheit 8
Menschenführung 9
Motivation 7
Disziplin 7
Arbeitszufriedenheit
80%
Ermüdung
0%
Rolle Chefscout
Gehalt 43.5K p/W
Vertrag 14.03.2029

Leistung

Verhalten Gut
Trainingseffektivität
29%
Spielerentwicklung
35%
Verletzungsprävention
15%
Taktische Umsetzung
45%

Letzte Ereignisse

Nahm an einer Scouting-Besprechung teil 7T her
Nahm an einer Scouting-Besprechung teil 14T her
Nahm an einer Scouting-Besprechung teil 21T her
Nahm an einer Scouting-Besprechung teil 28T her
Nahm an einer Scouting-Besprechung teil 35T her
Nahm an einer Scouting-Besprechung teil 42T her
Nahm an einer Scouting-Besprechung teil 49T her
Nahm an einer Scouting-Besprechung teil 56T her

Aktuell beobachtet

72
Spieler Verein Status Fähigkeit Vertrauen Beobachtet Zuletzt beobachtet Letzte Stimme
Odah Marshall Noah Aktiv 87 / 92 51% 1 09.08.2027 -
Edik Vardanyan Urartu Aktiv 66 / 69 51% 1 14.06.2027 -
Narek Janoyan Shirak Aktiv 84 / 81 51% 1 06.06.2027 -
Patrick Schmidt Tarxien Rainbows Aktiv 111 / 103 40% 1 31.05.2027 -
Diamanka Senghor Mosta Aktiv 82 / 91 40% 1 02.01.2027 -
Naoufal Bannis Vitesse Aktiv 117 / 114 40% 1 02.01.2027 -
Edarlyn Reyes Arsenal Tula Aktiv 100 / 110 40% 5 31.12.2026 -
Jere Vrcić Birkirkara Aktiv 90 / 95 40% 2 31.12.2026 -
Bahlul Mammadov Inter Aktiv 120 / 122 40% 4 30.12.2026 -
Aaron Drinan Swindon Town Aktiv 109 / 101 40% 2 29.12.2026 -
Gevork Sarkisyan Saturn Aktiv 75 / 82 40% 1 29.12.2026 -
Paul Mbong Floriana Aktiv 86 / 98 40% 2 28.12.2026 -
Mikhail Zabotkin Volna Aktiv 83 / 72 40% 1 28.12.2026 -
Ekain Orobengoa Real Sociedad Aktiv 105 / 109 40% 2 27.12.2026 -
Soslan Lysenko Spartak Nalchik Aktiv 87 / 78 40% 1 23.12.2026 -
Kenan Dervišagić Floriana Aktiv 95 / 100 40% 1 23.12.2026 -
Danila Yezhkov Dinamo Vologda Aktiv 76 / 79 40% 1 20.12.2026 -
Nikolay Maximov Krylya Sovetov Aktiv 72 / 68 40% 1 19.12.2026 -
Kamran Aliev SKA Khabarovsk Aktiv 95 / 94 40% 3 17.12.2026 -
Dmitry Kuptsov Spartak Tambov Aktiv 72 / 82 40% 1 15.12.2026 -
Alexandr Olenev Nart Aktiv 74 / 89 40% 2 14.12.2026 -
Yeangel Montero Naxxar Lions Aktiv 109 / 112 40% 1 12.12.2026 -
Ilja Safronov Rotor Aktiv 110 / 96 40% 3 10.12.2026 -
Magomed Nasibov Pobeda Aktiv 81 / 84 40% 3 10.12.2026 -
Alexandr Rudenko Lokomotiv Moscow Aktiv 124 / 114 40% 1 30.11.2026 -
Ağadadaş Salyanskiy Neftchi Aktiv 104 / 89 40% 1 28.11.2026 -
Gabriel Costa Naxxar Lions Aktiv 73 / 65 40% 2 27.11.2026 -
Mikhail Gainov Dinamo Stavropol Aktiv 81 / 75 40% 1 26.11.2026 -
Sam Nombe Milton Keynes Dons Aktiv 108 / 116 40% 2 24.11.2026 -
Dmitry Lesnikov Volgar Aktiv 96 / 99 40% 1 23.11.2026 -
Danila Shilov Dinamo Stavropol Aktiv 92 / 91 40% 1 20.11.2026 -
Max Svensson Penafiel Aktiv 119 / 111 40% 2 19.11.2026 -
Alexandr Saplinov Volga Aktiv 96 / 100 40% 1 19.11.2026 -
Isaac Matondo Koper Aktiv 115 / 110 40% 2 18.11.2026 -
Nikita Kireev Dinamo Vologda Aktiv 73 / 78 40% 1 18.11.2026 -
Vladislav Morozov Volgar Aktiv 89 / 90 40% 1 17.11.2026 -
Louis Appéré Cambridge United Aktiv 101 / 94 40% 2 16.11.2026 -
Marius Noubissi Pyunik Aktiv 113 / 119 40% 1 11.11.2026 -
Denzel Jubitana Neftchi Aktiv 123 / 118 40% 1 09.11.2026 -
Ilja Gruznov Khimik Aktiv 86 / 86 40% 1 09.11.2026 -
Franklin Sasere Birkirkara Aktiv 83 / 83 40% 1 07.11.2026 -
Maxim Kutovoy Salyut Aktiv 80 / 89 40% 1 04.11.2026 -
David Nieland Chernomorets Aktiv 88 / 91 40% 1 31.10.2026 -
Artem Ntumba Rubin Yalta Aktiv 81 / 74 40% 1 30.10.2026 -
Daniil Konoplev Dinamo Bryansk Aktiv 72 / 87 40% 1 30.10.2026 -
Jacobo Alcalde SKA Khabarovsk Aktiv 101 / 98 40% 1 29.10.2026 -
Jeremiah Okine-Peters Textilschik Aktiv 78 / 76 40% 1 26.10.2026 -
Artem Maximenko Rodina Aktiv 117 / 106 40% 1 25.10.2026 -
Razhab Magomedov Dinamo Makhachkala Aktiv 101 / 102 40% 1 25.10.2026 -
Aleksej Golijanin Sokol Aktiv 97 / 84 40% 1 23.10.2026 -
Matvey Martinkevich Dinamo Kirov Aktiv 90 / 83 40% 1 15.10.2026 -
Paul Glatzel Swindon Town Aktiv 102 / 92 40% 2 11.10.2026 -
Aziz Xolmurodov AGMK Aktiv 107 / 102 40% 1 10.10.2026 -
Oleksiy Shchebetun Qizilqum Aktiv 102 / 107 40% 1 05.10.2026 -
Karen Vardanyan Dinamo Minsk Aktiv 90 / 106 40% 1 02.10.2026 -
Luka Ratković Qizilqum Aktiv 108 / 93 40% 2 01.10.2026 -
Marcos Camarda Santiago Wanderers Aktiv 103 / 106 40% 2 28.09.2026 -
Franco García Colón Aktiv 99 / 117 40% 1 28.09.2026 -
Lee Bonis Chesterfield Aktiv 96 / 99 40% 1 24.09.2026 -
Uroš Kojić AGMK Aktiv 91 / 92 40% 1 24.09.2026 -
Dmitry Lavrischev Shirak Aktiv 79 / 91 40% 1 19.09.2026 -
Jasur Yaxshiboyev Lokomotiv Aktiv 118 / 112 40% 1 18.09.2026 -
Julien Lamy Lokomotiv Plovdiv Aktiv 95 / 105 40% 1 17.09.2026 -
Zhirayr Shaghoyan Ararat-Armenia Aktiv 102 / 106 40% 1 14.09.2026 -
Marcus Browne AFC Wimbledon Aktiv 110 / 108 40% 1 12.09.2026 -
Alioune Ndour Ararat-Armenia Aktiv 97 / 103 40% 1 11.09.2026 -
Eren Aydın Zira Aktiv 109 / 100 40% 1 10.09.2026 -
Philip Ejike Alashkert Aktiv 104 / 105 40% 1 07.09.2026 -
Tamkin Guseynov Khazar Aktiv 104 / 100 40% 1 07.09.2026 -
Valentin Costache Noah Aktiv 108 / 111 40% 1 25.08.2026 -
Jordan Houghton Stevenage Aktiv 113 / 114 40% 1 25.08.2026 -
Malick Berté Ararat Aktiv 110 / 100 40% 1 03.08.2026 -